createdAt,value
2022-11-18T00:13:43.432Z,23.90
2022-11-18T00:17:02.007Z,23.90
2022-11-18T00:20:57.871Z,23.90
2022-11-18T00:53:53.575Z,23.80
2022-11-18T00:57:17.603Z,23.90
2022-11-18T01:00:43.683Z,23.80
2022-11-18T01:04:11.670Z,23.80
2022-11-18T01:07:43.809Z,23.80
2022-11-18T01:10:53.754Z,23.80
2022-11-18T01:14:05.764Z,23.80
2022-11-18T01:17:35.801Z,23.80
2022-11-18T01:20:59.834Z,23.80
2022-11-18T01:24:23.869Z,23.80
2022-11-18T01:28:05.906Z,23.80
2022-11-18T01:31:49.896Z,23.80
2022-11-18T01:35:29.969Z,23.80
2022-11-18T01:39:06.002Z,23.80
2022-11-18T01:42:22.813Z,23.80
2022-11-18T01:45:46.727Z,23.80
2022-11-18T01:49:06.080Z,23.80
2022-11-18T01:52:36.107Z,23.80
2022-11-18T01:55:56.216Z,23.80
2022-11-18T01:59:08.239Z,23.70
2022-11-18T02:02:38.988Z,23.70
2022-11-18T02:06:06.221Z,23.70
2022-11-18T02:09:28.886Z,23.70
2022-11-18T02:12:54.285Z,23.70
2022-11-18T02:16:36.314Z,23.70
2022-11-18T02:20:24.339Z,23.70
2022-11-18T02:24:06.371Z,23.70
2022-11-18T02:28:06.410Z,23.70
2022-11-18T02:31:48.434Z,23.70
2022-11-18T02:35:12.464Z,23.70
2022-11-18T02:38:40.336Z,23.70
2022-11-18T02:42:06.522Z,23.70
2022-11-18T02:45:40.627Z,23.70
2022-11-18T02:49:18.834Z,23.70
2022-11-18T02:52:44.725Z,23.70
2022-11-18T02:56:06.637Z,23.70
2022-11-18T02:59:36.668Z,23.70
2022-11-18T03:03:00.699Z,23.70
2022-11-18T03:06:41.333Z,23.70
2022-11-18T03:10:06.759Z,23.70
2022-11-18T03:13:41.598Z,23.70
2022-11-18T03:17:12.815Z,23.70
2022-11-18T03:20:48.847Z,23.70
2022-11-18T03:24:24.878Z,23.70
2022-11-18T03:27:54.919Z,23.70
2022-11-18T03:31:24.945Z,23.70
2022-11-18T03:34:54.980Z,23.70
2022-11-18T03:38:19.017Z,23.70
2022-11-18T03:42:01.047Z,23.70
2022-11-18T03:45:31.085Z,23.70
2022-11-18T03:49:13.116Z,23.70
2022-11-18T03:52:49.160Z,23.70
2022-11-18T03:56:25.188Z,23.70
2022-11-18T04:00:01.226Z,23.70
2022-11-18T04:03:31.259Z,23.70
2022-11-18T04:07:07.317Z,23.70
2022-11-18T04:10:43.334Z,23.70
2022-11-18T05:28:59.964Z,24.20
2022-11-18T05:52:23.749Z,24.30
2022-11-18T06:16:14.853Z,24.10
2022-11-18T06:24:10.153Z,24.10
2022-11-18T06:27:27.634Z,24.10
2022-11-18T06:30:39.674Z,24.20
2022-11-18T06:34:09.698Z,24.20
2022-11-18T06:37:02.901Z,24.20
2022-11-18T06:40:45.754Z,24.20
2022-11-18T06:44:15.783Z,24.20
2022-11-18T06:47:48.985Z,24.20
2022-11-18T06:51:15.851Z,24.20
2022-11-18T06:54:33.574Z,24.10
2022-11-18T06:58:03.911Z,24.10
2022-11-18T07:01:02.117Z,24.10
2022-11-18T07:08:15.996Z,24.00
2022-11-18T07:11:21.803Z,24.00
2022-11-18T07:14:15.737Z,24.00
2022-11-18T07:17:04.072Z,23.90
2022-11-18T07:20:22.098Z,24.00
2022-11-18T07:23:46.125Z,23.90
2022-11-18T07:27:03.196Z,24.00
2022-11-18T07:30:28.252Z,24.00
2022-11-18T07:34:04.209Z,24.10
2022-11-18T07:37:28.239Z,24.10
2022-11-18T07:40:10.669Z,24.10
2022-11-18T07:43:22.288Z,24.10
2022-11-18T07:47:04.346Z,24.10
2022-11-18T07:50:04.345Z,24.10
2022-11-18T07:53:34.374Z,24.10
2022-11-18T07:56:54.130Z,24.10
2022-11-18T12:50:34.498Z,24.80
2022-11-18T12:54:04.524Z,24.70
2022-11-18T12:58:01.283Z,24.70
2022-11-18T13:01:14.026Z,24.60
2022-11-18T13:04:13.347Z,24.70
2022-11-18T13:16:14.375Z,24.60
2022-11-18T13:19:20.901Z,24.60
2022-11-18T13:22:29.909Z,24.70
2022-11-18T13:25:30.535Z,24.70
2022-11-18T13:28:35.004Z,24.70
2022-11-18T13:31:51.233Z,24.70
2022-11-18T13:35:15.036Z,24.80
2022-11-18T14:14:39.390Z,24.70
2022-11-18T14:18:25.752Z,24.70
2022-11-18T14:22:11.645Z,24.70
2022-11-18T14:25:33.284Z,24.70
2022-11-18T17:41:11.462Z,24.40
2022-11-18T17:49:17.591Z,24.40
2022-11-18T17:53:17.633Z,24.40
2022-11-18T17:56:30.366Z,24.40
2022-11-18T17:59:54.395Z,24.30
2022-11-18T18:03:06.421Z,24.30
2022-11-18T18:06:30.453Z,24.30
2022-11-18T18:09:41.761Z,24.20
2022-11-18T18:13:00.507Z,24.30
2022-11-18T18:16:23.822Z,24.30
2022-11-18T18:19:24.584Z,24.30
2022-11-18T18:22:24.598Z,24.30
2022-11-18T18:25:30.245Z,24.30
2022-11-18T18:28:38.055Z,24.30
2022-11-18T18:31:48.695Z,24.30
2022-11-18T18:34:48.705Z,24.40
2022-11-18T18:38:19.515Z,24.40
2022-11-18T18:41:30.766Z,24.40
2022-11-18T18:45:00.809Z,24.40
2022-11-18T18:55:30.896Z,24.30
2022-11-18T18:59:18.929Z,24.30
2022-11-18T19:02:54.202Z,24.30
2022-11-18T19:18:55.103Z,24.10
2022-11-18T19:31:05.607Z,24.20
2022-11-18T19:34:29.642Z,24.20
2022-11-18T19:37:59.660Z,24.30
2022-11-18T19:41:23.690Z,24.30
2022-11-18T19:44:49.331Z,24.30
2022-11-18T19:51:49.384Z,24.30
2022-11-18T19:55:17.819Z,24.30
2022-11-18T19:58:44.267Z,24.20
2022-11-18T20:02:17.885Z,24.20
2022-11-18T20:05:49.503Z,24.20
2022-11-18T20:09:18.233Z,24.20
2022-11-18T20:12:44.742Z,24.20
2022-11-18T20:16:12.011Z,24.20
2022-11-18T20:19:42.047Z,24.20
2022-11-18T20:23:12.149Z,24.30
2022-11-18T20:26:54.108Z,24.30
2022-11-18T20:30:18.142Z,24.30
2022-11-18T20:33:45.549Z,24.30
2022-11-18T20:37:12.195Z,24.30
2022-11-18T20:40:45.841Z,24.30
2022-11-18T20:44:12.257Z,24.40
2022-11-18T20:47:42.285Z,24.40
2022-11-18T20:51:12.317Z,24.40
2022-11-18T20:54:42.349Z,24.30
2022-11-18T20:58:12.377Z,24.30
2022-11-18T21:01:56.009Z,24.20
2022-11-18T21:05:24.448Z,24.20
2022-11-18T21:09:00.481Z,24.20
2022-11-18T21:12:24.509Z,24.10
2022-11-18T21:15:56.138Z,24.10
2022-11-18T21:19:24.588Z,24.10
2022-11-18T21:22:50.183Z,24.00
2022-11-18T21:26:14.218Z,24.00
2022-11-18T21:29:42.681Z,24.00
2022-11-18T21:33:12.713Z,23.90
2022-11-18T21:37:00.750Z,23.90
2022-11-18T21:40:24.775Z,23.90
2022-11-18T21:44:09.996Z,23.90
2022-11-18T21:47:36.837Z,23.90
2022-11-18T21:51:12.869Z,23.90
2022-11-18T22:19:41.822Z,23.70
2022-11-18T22:23:16.622Z,23.70
2022-11-18T22:53:37.453Z,23.70
2022-11-18T23:27:35.020Z,23.70
